createdAt,value
2023-01-02T00:00:28.981Z,16.17
2023-01-02T00:02:55.593Z,8.43
2023-01-02T00:05:22.167Z,12.73
2023-01-02T00:07:48.596Z,14.68
2023-01-02T00:10:15.143Z,16.33
2023-01-02T00:12:41.775Z,7.97
2023-01-02T00:15:08.677Z,8.98
2023-01-02T00:17:35.257Z,15.07
2023-01-02T00:20:01.709Z,21.67
2023-01-02T00:22:28.189Z,8.77
2023-01-02T00:24:54.611Z,3.35
2023-01-02T00:27:21.059Z,12.27
2023-01-02T00:29:47.496Z,6.93
2023-01-02T00:32:14.813Z,14.38
2023-01-02T00:34:41.321Z,11.38
2023-01-02T00:37:07.768Z,5.32
2023-01-02T00:39:34.236Z,16.45
2023-01-02T00:42:00.725Z,4.70
2023-01-02T00:44:27.160Z,10.23
2023-01-02T00:46:53.745Z,10.90
2023-01-02T00:49:20.172Z,3.50
2023-01-02T00:51:46.647Z,9.45
2023-01-02T00:54:13.094Z,16.05
2023-01-02T00:56:39.537Z,4.55
2023-01-02T00:59:06.008Z,6.70
2023-01-02T01:01:32.610Z,6.13
2023-01-02T01:04:00.134Z,0.82
2023-01-02T01:06:26.820Z,4.97
2023-01-02T01:08:53.516Z,12.07
2023-01-02T01:11:19.987Z,17.15
2023-01-02T01:13:47.567Z,8.98
2023-01-02T01:16:17.280Z,5.57
2023-01-02T01:18:44.517Z,7.80
2023-01-02T01:21:13.612Z,7.82
2023-01-02T01:23:40.304Z,10.73
2023-01-02T01:26:09.328Z,5.47
2023-01-02T01:28:36.122Z,6.30
2023-01-02T01:31:08.759Z,6.78
2023-01-02T01:33:36.330Z,7.43
2023-01-02T01:36:04.504Z,9.40
2023-01-02T01:38:32.057Z,7.32
2023-01-02T01:40:59.375Z,12.75
2023-01-02T01:43:50.042Z,12.93
2023-01-02T01:46:22.261Z,16.02
2023-01-02T01:48:53.317Z,4.13
2023-01-02T01:51:21.078Z,5.47
2023-01-02T01:53:54.263Z,9.15
2023-01-02T01:56:20.958Z,12.50
2023-01-02T01:58:47.507Z,10.30
2023-01-02T02:01:16.219Z,19.15
2023-01-02T02:03:45.635Z,16.35
2023-01-02T02:06:12.947Z,7.20
2023-01-02T02:08:55.107Z,9.68
2023-01-02T02:11:22.232Z,10.52
2023-01-02T02:13:49.728Z,15.25
2023-01-02T02:16:16.172Z,14.98
2023-01-02T02:18:54.559Z,16.83
2023-01-02T02:21:45.860Z,14.20
2023-01-02T02:24:58.161Z,8.90
2023-01-02T02:27:34.087Z,16.80
2023-01-02T02:30:05.532Z,6.95
2023-01-02T02:32:46.909Z,17.73
2023-01-02T02:35:19.277Z,12.50
2023-01-02T02:37:52.658Z,11.60
2023-01-02T02:40:45.942Z,8.13
2023-01-02T02:43:58.066Z,12.82
2023-01-02T02:46:58.420Z,10.23
2023-01-02T02:49:37.123Z,14.80
2023-01-02T02:52:14.823Z,16.55
2023-01-02T02:54:49.777Z,13.48
2023-01-02T02:57:18.060Z,12.93
2023-01-02T02:59:44.549Z,9.48
2023-01-02T03:02:16.208Z,12.07
2023-01-02T03:04:46.759Z,14.80
2023-01-02T03:07:22.193Z,10.27
2023-01-02T03:10:07.955Z,12.27
2023-01-02T03:15:28.356Z,6.55
2023-01-02T03:18:08.800Z,16.02
2023-01-02T03:20:41.257Z,14.18
2023-01-02T03:23:16.324Z,16.17
2023-01-02T03:25:44.589Z,14.48
2023-01-02T03:28:14.638Z,14.63
2023-01-02T03:30:42.984Z,7.95
2023-01-02T03:33:17.089Z,7.75
2023-01-02T03:35:49.862Z,12.85
2023-01-02T03:38:33.933Z,14.18
2023-01-02T03:41:09.529Z,5.05
2023-01-02T03:43:39.896Z,14.50
2023-01-02T03:46:19.361Z,10.45
2023-01-02T03:48:53.443Z,16.55
2023-01-02T03:51:20.159Z,6.28
2023-01-02T03:53:50.053Z,11.73
2023-01-02T03:56:27.131Z,16.10
2023-01-02T03:59:00.119Z,13.05
2023-01-02T04:01:53.953Z,11.35
2023-01-02T04:04:59.088Z,14.00
2023-01-02T04:07:34.911Z,17.23
2023-01-02T04:10:03.142Z,10.77
2023-01-02T04:12:33.535Z,17.35
2023-01-02T04:15:05.524Z,14.35
2023-01-02T04:17:38.794Z,5.97
2023-01-02T04:20:10.844Z,18.67
2023-01-02T04:22:46.797Z,7.05
2023-01-02T04:25:15.805Z,17.25
2023-01-02T04:27:57.504Z,17.15
2023-01-02T04:30:24.277Z,17.23
2023-01-02T04:32:51.499Z,14.55
2023-01-02T04:35:22.360Z,5.63
2023-01-02T04:37:49.468Z,16.67
2023-01-02T04:40:29.485Z,19.42
2023-01-02T04:42:56.562Z,16.60
2023-01-02T04:45:23.424Z,6.20
2023-01-02T04:47:50.872Z,9.02
2023-01-02T04:50:17.584Z,15.57
2023-01-02T04:52:44.122Z,14.95
2023-01-02T04:55:10.660Z,6.10
2023-01-02T04:57:37.959Z,12.15
2023-01-02T05:00:06.345Z,16.17
2023-01-02T05:02:37.411Z,8.02
2023-01-02T05:05:05.014Z,11.07
2023-01-02T05:07:33.547Z,15.18
2023-01-02T05:10:00.144Z,14.48
2023-01-02T05:12:26.806Z,10.52
2023-01-02T05:14:53.230Z,15.55
2023-01-02T05:17:19.679Z,6.18
2023-01-02T05:19:46.245Z,13.63
2023-01-02T05:22:35.775Z,10.80
2023-01-02T05:25:02.185Z,8.60
2023-01-02T05:27:28.640Z,10.68
2023-01-02T05:29:55.160Z,9.77
2023-01-02T05:32:21.591Z,1.55
2023-01-02T05:34:48.031Z,11.38
2023-01-02T05:37:14.466Z,18.02
2023-01-02T05:39:40.907Z,13.25
2023-01-02T05:42:07.328Z,8.65
2023-01-02T05:44:33.757Z,6.40
2023-01-02T05:47:00.175Z,3.45
2023-01-02T05:49:26.627Z,6.00
2023-01-02T05:51:53.072Z,7.22
2023-01-02T05:54:19.509Z,11.60
2023-01-02T05:56:46.005Z,13.25
2023-01-02T05:59:15.811Z,10.63
2023-01-02T06:01:42.464Z,5.60
2023-01-02T06:04:09.076Z,11.07
2023-01-02T06:06:37.599Z,9.02
2023-01-02T06:09:05.819Z,10.90
2023-01-02T06:11:32.302Z,9.18
2023-01-02T06:13:58.869Z,8.75
2023-01-02T06:16:25.466Z,8.27
2023-01-02T06:18:53.003Z,12.68
2023-01-02T06:21:21.375Z,5.68
2023-01-02T06:23:49.136Z,9.10
2023-01-02T06:26:19.738Z,10.57
2023-01-02T06:28:49.138Z,7.93
2023-01-02T06:31:17.252Z,12.13
2023-01-02T06:33:44.392Z,9.25
2023-01-02T06:36:12.126Z,6.88
2023-01-02T06:38:38.873Z,3.83
2023-01-02T06:41:07.121Z,5.05
2023-01-02T06:43:37.003Z,10.20
2023-01-02T06:46:05.185Z,7.95
2023-01-02T06:48:33.402Z,5.30
2023-01-02T06:50:59.996Z,8.63
2023-01-02T06:53:27.254Z,8.95
2023-01-02T06:55:55.900Z,9.77
2023-01-02T06:58:23.033Z,2.30
2023-01-02T07:00:50.305Z,2.20
2023-01-02T07:03:17.412Z,5.45
2023-01-02T07:05:45.189Z,6.50
2023-01-02T07:08:12.560Z,8.82
2023-01-02T07:10:39.345Z,2.58
2023-01-02T07:13:05.828Z,6.65
2023-01-02T07:15:33.505Z,4.43
2023-01-02T07:18:00.278Z,6.18
2023-01-02T07:20:26.796Z,6.68
2023-01-02T07:22:54.326Z,8.15
2023-01-02T07:25:22.014Z,3.78
2023-01-02T07:27:48.633Z,4.25
2023-01-02T07:30:15.584Z,6.63
2023-01-02T07:32:43.221Z,5.75
2023-01-02T07:35:10.995Z,13.10
2023-01-02T07:37:37.570Z,6.93
2023-01-02T07:40:04.611Z,10.20
2023-01-02T07:42:31.037Z,10.05
2023-01-02T07:44:57.474Z,9.80
2023-01-02T07:47:23.977Z,5.47
2023-01-02T07:49:50.393Z,4.97
2023-01-02T07:52:16.827Z,4.15
2023-01-02T07:54:43.272Z,9.90
2023-01-02T07:57:09.689Z,8.50
2023-01-02T07:59:36.130Z,5.45
2023-01-02T08:02:02.740Z,2.97
2023-01-02T08:04:29.232Z,5.25
2023-01-02T08:06:55.802Z,10.02
2023-01-02T08:09:22.259Z,8.43
2023-01-02T08:11:48.746Z,4.03
2023-01-02T08:14:21.553Z,9.27
2023-01-02T08:16:49.802Z,2.17
2023-01-02T08:19:16.309Z,1.40
2023-01-02T08:21:42.801Z,6.85
2023-01-02T08:24:09.513Z,9.55
2023-01-02T08:26:35.947Z,7.88
2023-01-02T08:29:02.441Z,8.27
2023-01-02T08:31:28.932Z,8.30
2023-01-02T08:33:55.508Z,7.70
2023-01-02T08:36:22.012Z,7.80
2023-01-02T08:38:48.642Z,7.78
2023-01-02T08:41:15.394Z,11.48
2023-01-02T08:43:41.845Z,2.45
2023-01-02T08:46:09.959Z,6.85
2023-01-02T08:48:37.023Z,8.45
2023-01-02T08:51:04.449Z,4.72
2023-01-02T08:53:30.952Z,6.45
2023-01-02T08:56:17.283Z,6.18
2023-01-02T08:58:47.311Z,5.78
2023-01-02T09:01:16.959Z,6.55
2023-01-02T09:03:43.477Z,8.98
2023-01-02T09:06:09.899Z,14.27
2023-01-02T09:08:36.388Z,9.40
2023-01-02T09:11:36.571Z,10.10
2023-01-02T09:14:04.645Z,3.50
2023-01-02T09:16:31.539Z,3.47
2023-01-02T09:19:00.324Z,5.22
2023-01-02T09:21:27.176Z,4.65
2023-01-02T09:23:53.720Z,1.30
2023-01-02T09:26:20.225Z,3.53
2023-01-02T09:28:46.814Z,0.90
2023-01-02T09:31:15.666Z,1.60
2023-01-02T09:33:44.142Z,5.50
2023-01-02T09:36:13.058Z,3.10
2023-01-02T09:38:39.847Z,2.58
2023-01-02T09:41:26.699Z,2.25
2023-01-02T09:44:07.400Z,6.40
2023-01-02T09:46:44.948Z,4.40
2023-01-02T09:49:18.593Z,4.22
2023-01-02T09:51:45.381Z,4.88
2023-01-02T09:54:18.384Z,5.93
2023-01-02T09:56:50.294Z,5.88
2023-01-02T09:59:33.896Z,5.57
2023-01-02T10:02:06.307Z,3.67
2023-01-02T10:04:35.841Z,2.92
2023-01-02T10:07:13.540Z,2.80
2023-01-02T10:09:55.034Z,3.40
2023-01-02T10:12:58.940Z,3.95
2023-01-02T10:15:30.862Z,4.63
2023-01-02T10:18:18.192Z,1.63
2023-01-02T10:20:51.234Z,0.65
2023-01-02T10:23:24.549Z,2.72
2023-01-02T10:26:03.254Z,1.38
2023-01-02T10:28:44.077Z,2.13
2023-01-02T10:31:20.538Z,0.77
2023-01-02T10:33:52.586Z,5.72
2023-01-02T10:36:26.458Z,4.22
2023-01-02T10:39:02.393Z,2.13
2023-01-02T10:41:30.313Z,1.35
2023-01-02T10:44:07.337Z,6.45
2023-01-02T10:46:36.688Z,4.85
2023-01-02T10:49:04.965Z,4.45
2023-01-02T10:51:31.500Z,10.82
2023-01-02T10:54:00.783Z,9.85
2023-01-02T10:56:32.581Z,11.60
2023-01-02T10:59:00.207Z,11.77
2023-01-02T11:01:27.143Z,7.43
2023-01-02T11:03:57.593Z,6.72
2023-01-02T11:06:29.303Z,6.00
2023-01-02T11:09:02.151Z,9.13
2023-01-02T11:11:30.615Z,8.80
2023-01-02T11:14:06.940Z,3.78
2023-01-02T11:16:38.453Z,10.68
2023-01-02T11:19:07.507Z,7.22
2023-01-02T11:21:40.428Z,2.38
2023-01-02T11:24:15.716Z,12.70
2023-01-02T11:29:19.125Z,7.68
2023-01-02T11:31:57.188Z,12.82
2023-01-02T11:34:34.262Z,10.43
2023-01-02T11:37:13.131Z,8.73
2023-01-02T11:39:40.888Z,10.30
2023-01-02T11:43:04.594Z,12.98
2023-01-02T11:45:32.986Z,8.07
2023-01-02T11:48:04.624Z,8.95
2023-01-02T11:50:35.606Z,9.35
2023-01-02T11:53:07.669Z,2.85
2023-01-02T11:55:52.891Z,7.35
2023-01-02T11:58:54.806Z,4.47
2023-01-02T12:01:40.114Z,10.88
2023-01-02T12:04:06.792Z,6.32
2023-01-02T12:06:33.289Z,10.32
2023-01-02T12:09:11.758Z,10.77
2023-01-02T12:11:56.254Z,10.30
2023-01-02T12:14:32.924Z,10.75
2023-01-02T12:17:20.784Z,11.90
2023-01-02T12:19:53.008Z,7.88
2023-01-02T12:22:57.436Z,12.18
2023-01-02T12:25:42.993Z,4.65
2023-01-02T12:28:27.899Z,7.95
2023-01-02T12:31:16.844Z,14.23
2023-01-02T12:34:07.656Z,10.38
2023-01-02T12:36:53.411Z,9.07
2023-01-02T12:42:00.606Z,13.02
2023-01-02T12:44:51.928Z,9.07
2023-01-02T12:48:17.219Z,10.85
2023-01-02T12:51:01.967Z,10.95
2023-01-02T12:54:18.834Z,15.77
2023-01-02T12:57:05.444Z,14.25
2023-01-02T12:59:34.728Z,9.48
2023-01-02T13:02:10.062Z,7.03
2023-01-02T13:04:51.188Z,12.88
2023-01-02T13:07:38.902Z,3.30
2023-01-02T13:10:06.792Z,12.27
2023-01-02T13:12:35.683Z,13.40
2023-01-02T13:15:10.373Z,11.63
2023-01-02T13:18:00.127Z,13.15
2023-01-02T13:20:52.377Z,15.07
2023-01-02T13:23:40.512Z,4.60
2023-01-02T13:26:11.059Z,17.85
2023-01-02T13:28:52.082Z,12.80
2023-01-02T13:31:45.408Z,6.10
2023-01-02T13:34:14.547Z,14.52
2023-01-02T13:36:46.312Z,13.27
2023-01-02T13:39:40.282Z,18.33
2023-01-02T13:42:29.299Z,14.05
2023-01-02T13:45:00.166Z,20.45
2023-01-02T13:47:37.184Z,19.80
2023-01-02T13:50:19.297Z,17.15
2023-01-02T13:53:23.183Z,17.52
2023-01-02T13:56:01.761Z,10.27
2023-01-02T13:58:46.432Z,15.90
2023-01-02T14:01:22.331Z,13.35
2023-01-02T14:04:07.137Z,8.85
2023-01-02T14:06:38.044Z,11.55
2023-01-02T14:09:04.498Z,17.05
2023-01-02T14:11:57.211Z,15.80
2023-01-02T14:14:39.892Z,17.80
2023-01-02T14:17:12.367Z,18.75
2023-01-02T14:19:39.451Z,11.63
2023-01-02T14:22:13.479Z,15.90
2023-01-02T14:24:49.495Z,20.67
2023-01-02T14:27:15.921Z,18.45
2023-01-02T14:30:06.497Z,19.77
2023-01-02T14:32:46.706Z,7.50
2023-01-02T14:35:13.172Z,23.25
2023-01-02T14:37:44.709Z,23.10
2023-01-02T14:40:18.629Z,10.90
2023-01-02T14:43:12.751Z,9.68
2023-01-02T14:45:50.513Z,22.52
2023-01-02T14:48:26.907Z,19.95
2023-01-02T14:51:02.528Z,14.82
2023-01-02T14:53:51.960Z,11.43
2023-01-02T14:56:22.719Z,19.48
2023-01-02T14:58:51.193Z,19.95
2023-01-02T15:01:43.929Z,17.00
2023-01-02T15:04:15.930Z,20.30
2023-01-02T15:06:49.983Z,19.67
2023-01-02T15:09:22.241Z,11.85
2023-01-02T15:12:12.592Z,20.85
2023-01-02T15:14:40.374Z,11.10
2023-01-02T15:17:13.698Z,5.65
2023-01-02T15:19:42.448Z,21.08
2023-01-02T15:22:10.884Z,12.32
2023-01-02T15:24:37.860Z,10.55
2023-01-02T15:27:20.765Z,8.18
2023-01-02T15:29:49.870Z,12.32
2023-01-02T15:32:34.514Z,10.13
2023-01-02T15:35:30.392Z,13.25
2023-01-02T15:37:56.997Z,19.42
2023-01-02T15:40:23.418Z,13.38
2023-01-02T15:43:11.276Z,14.60
2023-01-02T15:45:43.963Z,8.75
2023-01-02T15:48:12.275Z,4.00
2023-01-02T15:50:40.319Z,12.40
2023-01-02T15:53:23.120Z,13.20
2023-01-02T15:55:49.557Z,19.92
2023-01-02T15:58:15.973Z,22.23
2023-01-02T16:00:43.999Z,16.90
2023-01-02T16:03:13.992Z,13.95
2023-01-02T16:05:53.887Z,10.70
2023-01-02T16:08:27.173Z,6.93
2023-01-02T16:11:01.556Z,6.13
2023-01-02T16:13:50.935Z,5.63
2023-01-02T16:16:20.246Z,7.47
2023-01-02T16:18:50.642Z,6.18
2023-01-02T16:21:17.555Z,10.02
2023-01-02T16:23:50.551Z,10.20
2023-01-02T16:26:18.713Z,4.15
2023-01-02T16:28:45.641Z,9.38
2023-01-02T16:31:16.171Z,2.38
2023-01-02T16:33:43.328Z,10.48
2023-01-02T16:36:22.411Z,13.00
2023-01-02T16:39:00.402Z,11.63
2023-01-02T16:41:35.054Z,9.23
2023-01-02T16:44:12.495Z,11.82
2023-01-02T16:46:49.163Z,9.73
2023-01-02T16:49:23.323Z,18.15
2023-01-02T16:51:54.226Z,10.45
2023-01-02T16:54:21.052Z,16.38
2023-01-02T16:56:49.819Z,14.98
2023-01-02T16:59:16.300Z,8.73
2023-01-02T17:01:42.877Z,15.23
2023-01-02T17:04:12.636Z,11.82
2023-01-02T17:06:39.083Z,9.20
2023-01-02T17:09:05.592Z,13.48
2023-01-02T17:11:32.244Z,13.68
2023-01-02T17:14:00.990Z,10.38
2023-01-02T17:16:27.526Z,9.20
2023-01-02T17:18:53.961Z,15.88
2023-01-02T17:21:20.420Z,6.78
2023-01-02T17:23:46.860Z,14.00
2023-01-02T17:26:13.319Z,14.98
2023-01-02T17:28:39.791Z,10.13
2023-01-02T17:31:06.370Z,8.80
2023-01-02T17:33:32.893Z,3.63
2023-01-02T17:35:59.419Z,6.63
2023-01-02T17:38:25.949Z,4.32
2023-01-02T17:41:00.090Z,3.85
2023-01-02T17:43:26.652Z,3.70
2023-01-02T17:45:53.460Z,4.68
2023-01-02T17:48:24.264Z,4.75
2023-01-02T17:50:53.740Z,2.88
2023-01-02T17:53:20.414Z,6.43
2023-01-02T17:56:21.696Z,6.63
2023-01-02T17:58:40.725Z,6.10
2023-01-02T18:01:07.334Z,4.65
2023-01-02T18:03:33.779Z,8.75
2023-01-02T18:06:04.864Z,4.45
2023-01-02T18:08:31.794Z,8.23
2023-01-02T18:10:58.229Z,8.30
2023-01-02T18:13:29.290Z,10.38
2023-01-02T18:15:55.777Z,5.85
2023-01-02T18:18:24.700Z,3.78
2023-01-02T18:20:51.273Z,1.25
2023-01-02T18:23:18.005Z,7.28
2023-01-02T18:25:44.747Z,6.90
2023-01-02T18:28:23.234Z,4.70
2023-01-02T18:30:56.165Z,10.32
2023-01-02T18:33:23.687Z,9.32
2023-01-02T18:35:59.571Z,7.35
2023-01-02T18:38:44.475Z,7.38
2023-01-02T18:41:23.591Z,11.93
2023-01-02T18:43:54.079Z,4.18
2023-01-02T18:47:04.334Z,13.52
2023-01-02T18:49:24.376Z,7.35
2023-01-02T18:52:15.604Z,8.43
2023-01-02T18:54:45.590Z,4.32
2023-01-02T18:57:18.837Z,3.25
2023-01-02T18:59:52.169Z,4.07
2023-01-02T19:02:27.720Z,6.35
2023-01-02T19:04:56.458Z,9.65
2023-01-02T19:07:31.741Z,9.80
2023-01-02T19:13:07.078Z,7.35
2023-01-02T19:15:40.627Z,5.85
2023-01-02T19:18:29.855Z,8.55
2023-01-02T19:21:09.249Z,9.82
2023-01-02T19:23:46.877Z,11.13
2023-01-02T19:26:26.838Z,7.75
2023-01-02T19:28:55.653Z,11.45
2023-01-02T19:31:22.749Z,10.38
2023-01-02T19:33:58.787Z,16.08
2023-01-02T19:36:39.823Z,7.65
2023-01-02T19:39:26.134Z,8.30
2023-01-02T19:42:11.943Z,14.23
2023-01-02T19:44:38.470Z,12.45
2023-01-02T19:47:05.039Z,15.98
2023-01-02T19:49:31.673Z,13.40
2023-01-02T19:51:58.190Z,12.48
2023-01-02T19:54:24.686Z,13.50
2023-01-02T19:56:51.200Z,14.23
2023-01-02T19:59:17.664Z,11.88
2023-01-02T20:01:44.219Z,16.85
2023-01-02T20:04:10.786Z,8.60
2023-01-02T20:06:37.224Z,8.77
2023-01-02T20:09:03.786Z,12.85
2023-01-02T20:11:49.763Z,5.10
2023-01-02T20:14:16.253Z,16.38
2023-01-02T20:16:42.814Z,14.73
2023-01-02T20:19:09.389Z,17.92
2023-01-02T20:21:35.987Z,12.05
2023-01-02T20:24:02.640Z,17.75
2023-01-02T20:26:29.248Z,4.78
2023-01-02T20:28:55.808Z,23.13
2023-01-02T20:31:22.437Z,19.05
2023-01-02T20:33:48.940Z,12.15
2023-01-02T20:36:15.406Z,19.83
2023-01-02T20:38:41.886Z,23.33
2023-01-02T20:41:08.356Z,7.72
2023-01-02T20:43:34.821Z,16.65
2023-01-02T20:46:01.507Z,20.20
2023-01-02T20:48:28.076Z,22.65
2023-01-02T20:50:54.656Z,20.45
2023-01-02T20:53:21.211Z,20.67
2023-01-02T20:55:47.847Z,15.20
2023-01-02T20:58:14.513Z,10.45
2023-01-02T21:00:41.235Z,30.55
2023-01-02T21:03:08.123Z,20.70
2023-01-02T21:05:34.886Z,19.02
2023-01-02T21:08:01.359Z,7.78
2023-01-02T21:10:28.009Z,15.20
2023-01-02T21:13:12.681Z,19.55
2023-01-02T21:15:51.353Z,16.67
2023-01-02T21:18:19.700Z,9.95
2023-01-02T21:20:48.670Z,13.23
2023-01-02T21:23:16.205Z,13.57
2023-01-02T21:25:43.376Z,19.73
2023-01-02T21:28:12.390Z,24.85
2023-01-02T21:30:40.414Z,24.17
2023-01-02T21:33:08.109Z,23.33
2023-01-02T21:35:35.287Z,26.13
2023-01-02T21:38:02.402Z,23.77
2023-01-02T21:40:29.312Z,16.70
2023-01-02T21:42:55.850Z,21.35
2023-01-02T21:45:23.046Z,16.63
2023-01-02T21:47:49.599Z,17.90
2023-01-02T21:50:16.136Z,22.42
2023-01-02T21:52:43.092Z,8.32
2023-01-02T21:55:10.358Z,7.10
2023-01-02T22:00:29.002Z,20.85
2023-01-02T22:02:55.950Z,25.02
2023-01-02T22:05:22.837Z,20.08
2023-01-02T22:07:49.387Z,22.17
2023-01-02T22:10:17.127Z,18.38
2023-01-02T22:12:43.886Z,11.90
2023-01-02T22:15:11.927Z,21.42
2023-01-02T22:17:38.453Z,23.83
2023-01-02T22:20:05.374Z,21.23
2023-01-02T22:22:31.826Z,20.05
2023-01-02T22:24:58.334Z,24.85
2023-01-02T22:27:24.821Z,24.13
2023-01-02T22:32:41.652Z,22.60
2023-01-02T22:35:08.733Z,20.10
2023-01-02T22:37:35.191Z,22.67
2023-01-02T22:40:02.080Z,24.02
2023-01-02T22:43:00.449Z,24.02
2023-01-02T22:45:30.404Z,17.92
2023-01-02T22:48:00.201Z,22.30
2023-01-02T22:50:29.543Z,23.88
2023-01-02T22:52:56.390Z,28.35
2023-01-02T22:55:23.969Z,22.50
2023-01-02T22:57:51.973Z,29.63
2023-01-02T23:00:22.393Z,21.80
2023-01-02T23:02:50.061Z,17.25
2023-01-02T23:05:19.517Z,23.95
2023-01-02T23:07:46.917Z,7.72
2023-01-02T23:10:13.455Z,24.55
2023-01-02T23:12:39.989Z,24.15
2023-01-02T23:15:08.385Z,18.50
2023-01-02T23:17:53.620Z,18.90
2023-01-02T23:20:20.221Z,11.43
2023-01-02T23:22:48.002Z,26.55
2023-01-02T23:25:15.210Z,21.92
2023-01-02T23:27:42.051Z,11.38
2023-01-02T23:30:09.289Z,23.25
2023-01-02T23:32:35.705Z,18.98
2023-01-02T23:35:02.224Z,23.98
2023-01-02T23:37:28.637Z,12.80
2023-01-02T23:39:55.150Z,10.52
2023-01-02T23:42:21.582Z,19.02
2023-01-02T23:44:48.060Z,21.15
2023-01-02T23:47:19.075Z,22.83
2023-01-02T23:49:46.121Z,22.30
2023-01-02T23:52:12.838Z,29.60
2023-01-02T23:54:39.318Z,29.02
2023-01-02T23:57:05.858Z,35.75
2023-01-02T23:59:32.425Z,35.55
